createdAt,value
2023-01-15T00:00:54.936Z,994.26
2023-01-15T00:01:54.925Z,994.23
2023-01-15T00:02:54.923Z,994.22
2023-01-15T00:03:54.937Z,994.26
2023-01-15T00:04:55.158Z,994.27
2023-01-15T00:05:54.856Z,994.19
2023-01-15T00:06:55.118Z,994.24
2023-01-15T00:07:54.853Z,994.23
2023-01-15T00:08:54.841Z,994.27
2023-01-15T00:09:55.496Z,994.33
2023-01-15T00:10:54.807Z,994.34
2023-01-15T00:11:58.703Z,994.36
2023-01-15T00:12:54.787Z,994.30
2023-01-15T00:13:54.768Z,994.41
2023-01-15T00:14:54.739Z,994.44
2023-01-15T00:15:54.899Z,994.51
2023-01-15T00:16:54.724Z,994.52
2023-01-15T00:17:54.719Z,994.40
2023-01-15T00:18:54.981Z,994.38
2023-01-15T00:19:54.951Z,994.48
2023-01-15T00:20:54.949Z,994.44
2023-01-15T00:21:55.449Z,994.46
2023-01-15T00:22:54.660Z,994.50
2023-01-15T00:23:54.620Z,994.60
2023-01-15T00:24:54.624Z,994.50
2023-01-15T00:25:55.412Z,994.50
2023-01-15T00:26:54.870Z,994.43
2023-01-15T00:27:54.621Z,994.46
2023-01-15T00:28:54.561Z,994.45
2023-01-15T00:29:55.363Z,994.40
2023-01-15T00:30:54.558Z,994.51
2023-01-15T00:31:54.521Z,994.50
2023-01-15T00:32:54.540Z,994.48
2023-01-15T00:33:55.216Z,994.41
2023-01-15T00:34:55.699Z,994.46
2023-01-15T00:35:55.232Z,994.44
2023-01-15T00:36:58.385Z,994.39
2023-01-15T00:37:55.773Z,994.30
2023-01-15T00:38:54.851Z,994.53
2023-01-15T00:39:54.468Z,994.41
2023-01-15T00:40:54.416Z,994.54
2023-01-15T00:41:54.400Z,994.61
2023-01-15T00:42:54.863Z,994.43
2023-01-15T00:43:54.723Z,994.38
2023-01-15T00:44:54.395Z,994.41
2023-01-15T00:45:54.396Z,994.33
2023-01-15T00:46:54.330Z,994.36
2023-01-15T00:47:54.346Z,994.51
2023-01-15T00:48:55.278Z,994.48
2023-01-15T00:49:54.583Z,994.51
2023-01-15T00:50:54.277Z,994.55
2023-01-15T00:51:54.367Z,994.44
2023-01-15T00:52:54.267Z,994.56
2023-01-15T00:53:54.249Z,994.62
2023-01-15T00:54:54.498Z,994.70
2023-01-15T00:55:55.008Z,994.65
2023-01-15T00:56:55.021Z,994.73
2023-01-15T00:57:54.317Z,994.79
2023-01-15T00:58:54.195Z,994.64
2023-01-15T00:59:54.169Z,994.56
2023-01-15T01:00:54.168Z,994.59
2023-01-15T01:01:54.239Z,994.50
2023-01-15T01:02:54.149Z,994.56
2023-01-15T01:03:58.324Z,994.63
2023-01-15T01:04:55.901Z,994.63
2023-01-15T01:05:54.095Z,994.58
2023-01-15T01:06:54.774Z,994.48
2023-01-15T01:07:54.098Z,994.48
2023-01-15T01:08:54.053Z,994.54
2023-01-15T01:09:54.166Z,994.69
2023-01-15T01:10:57.892Z,994.65
2023-01-15T01:11:54.292Z,994.71
2023-01-15T01:12:54.012Z,994.64
2023-01-15T01:13:53.993Z,994.62
2023-01-15T01:14:54.036Z,994.58
2023-01-15T01:15:58.978Z,994.55
2023-01-15T01:16:53.946Z,994.55
2023-01-15T01:17:55.745Z,994.54
2023-01-15T01:18:53.937Z,994.55
2023-01-15T01:19:53.925Z,994.62
2023-01-15T01:20:53.916Z,994.63
2023-01-15T01:21:53.918Z,994.64
2023-01-15T01:22:53.886Z,994.63
2023-01-15T01:23:57.926Z,994.65
2023-01-15T01:24:53.865Z,994.66
2023-01-15T01:25:54.130Z,994.60
2023-01-15T01:26:54.800Z,994.67
2023-01-15T01:27:53.937Z,994.65
2023-01-15T01:28:53.798Z,994.64
2023-01-15T01:29:53.798Z,994.67
2023-01-15T01:31:04.813Z,994.67
2023-01-15T01:31:53.770Z,994.62
2023-01-15T01:33:05.250Z,994.84
2023-01-15T01:33:54.071Z,994.86
2023-01-15T01:34:53.724Z,994.95
2023-01-15T01:35:53.719Z,994.94
2023-01-15T01:36:53.702Z,994.89
2023-01-15T01:37:57.603Z,994.96
2023-01-15T01:38:53.671Z,994.90
2023-01-15T01:39:53.781Z,994.96
2023-01-15T01:40:53.661Z,994.95
2023-01-15T01:41:53.651Z,994.99
2023-01-15T01:42:53.631Z,995.00
2023-01-15T01:43:53.613Z,994.94
2023-01-15T01:44:54.555Z,994.89
2023-01-15T01:45:57.909Z,994.91
2023-01-15T01:46:53.591Z,994.93
2023-01-15T01:47:53.856Z,994.91
2023-01-15T01:48:53.544Z,994.93
2023-01-15T01:49:57.489Z,994.92
2023-01-15T01:50:53.526Z,994.90
2023-01-15T01:51:53.557Z,994.84
2023-01-15T01:52:53.515Z,994.96
2023-01-15T01:53:54.196Z,994.92
2023-01-15T01:54:53.475Z,994.93
2023-01-15T01:55:53.466Z,994.89
2023-01-15T01:56:53.434Z,994.92
2023-01-15T01:57:53.746Z,994.88
2023-01-15T01:58:53.415Z,994.88
2023-01-15T01:59:53.408Z,994.86
2023-01-15T02:00:53.415Z,994.83
2023-01-15T02:01:53.442Z,994.83
2023-01-15T02:02:53.390Z,994.84
2023-01-15T02:03:54.336Z,994.84
2023-01-15T02:04:55.127Z,994.90
2023-01-15T02:05:54.569Z,994.92
2023-01-15T02:06:53.310Z,994.93
2023-01-15T02:07:53.304Z,994.93
2023-01-15T02:08:53.968Z,994.97
2023-01-15T02:09:53.294Z,994.93
2023-01-15T02:10:53.269Z,994.94
2023-01-15T02:11:53.268Z,994.88
2023-01-15T02:12:53.230Z,994.85
2023-01-15T02:13:57.222Z,994.94
2023-01-15T02:14:53.204Z,994.90
2023-01-15T02:15:57.601Z,995.01
2023-01-15T02:16:53.181Z,994.83
2023-01-15T02:17:53.871Z,994.91
2023-01-15T02:18:53.153Z,994.87
2023-01-15T02:19:53.141Z,994.80
2023-01-15T02:20:53.140Z,994.77
2023-01-15T02:21:53.172Z,994.83
2023-01-15T02:22:53.125Z,994.61
2023-01-15T02:23:53.106Z,994.79
2023-01-15T02:24:53.088Z,994.90
2023-01-15T02:25:53.091Z,994.86
2023-01-15T02:26:53.067Z,994.88
2023-01-15T02:27:53.757Z,994.97
2023-01-15T02:28:53.017Z,994.98
2023-01-15T02:29:53.037Z,995.03
2023-01-15T02:30:52.995Z,994.90
2023-01-15T02:31:53.823Z,994.93
2023-01-15T02:32:52.983Z,994.99
2023-01-15T02:33:52.995Z,994.93
2023-01-15T02:34:54.248Z,994.91
2023-01-15T02:35:52.931Z,994.91
2023-01-15T02:36:52.933Z,994.92
2023-01-15T02:37:52.919Z,994.85
2023-01-15T02:38:52.894Z,994.93
2023-01-15T02:39:52.937Z,994.89
2023-01-15T02:40:52.876Z,994.87
2023-01-15T02:41:52.860Z,994.84
2023-01-15T02:42:52.843Z,994.77
2023-01-15T02:43:52.853Z,994.79
2023-01-15T02:44:53.780Z,994.73
2023-01-15T02:45:53.179Z,994.67
2023-01-15T02:46:52.792Z,994.69
2023-01-15T02:47:52.805Z,994.71
2023-01-15T02:48:52.791Z,994.74
2023-01-15T02:49:52.771Z,994.74
2023-01-15T02:50:52.734Z,994.87
2023-01-15T02:51:52.780Z,994.79
2023-01-15T02:52:52.990Z,994.81
2023-01-15T02:53:52.720Z,994.81
2023-01-15T02:54:53.465Z,994.86
2023-01-15T02:55:52.691Z,994.78
2023-01-15T02:56:52.928Z,994.83
2023-01-15T02:57:56.585Z,994.76
2023-01-15T02:58:52.645Z,994.84
2023-01-15T02:59:52.638Z,994.90
2023-01-15T03:00:52.632Z,994.74
2023-01-15T03:01:52.781Z,994.73
2023-01-15T03:02:52.702Z,994.74
2023-01-15T03:03:52.634Z,994.70
2023-01-15T03:04:52.561Z,994.67
2023-01-15T03:05:52.816Z,994.87
2023-01-15T03:06:52.804Z,994.89
2023-01-15T03:07:52.521Z,994.77
2023-01-15T03:08:52.800Z,994.68
2023-01-15T03:09:52.597Z,994.71
2023-01-15T03:10:52.495Z,994.72
2023-01-15T03:11:52.461Z,994.78
2023-01-15T03:12:52.457Z,994.71
2023-01-15T03:13:52.438Z,994.75
2023-01-15T03:14:52.454Z,994.57
2023-01-15T03:15:52.448Z,994.73
2023-01-15T03:16:52.436Z,994.63
2023-01-15T03:17:53.366Z,994.63
2023-01-15T03:18:52.385Z,994.63
2023-01-15T03:20:00.864Z,994.58
2023-01-15T03:20:56.952Z,994.52
2023-01-15T03:21:55.803Z,994.53
2023-01-15T03:22:53.299Z,994.57
2023-01-15T03:23:54.458Z,994.59
2023-01-15T03:26:04.957Z,994.57
2023-01-15T03:27:06.296Z,994.54
2023-01-15T03:28:05.592Z,994.58
2023-01-15T03:29:35.342Z,994.46
2023-01-15T03:30:14.235Z,994.48
2023-01-15T03:31:06.714Z,994.46
2023-01-15T03:32:09.423Z,994.42
2023-01-15T03:33:14.490Z,994.41
2023-01-15T03:34:06.034Z,994.41
2023-01-15T03:35:11.367Z,994.44
2023-01-15T03:36:06.718Z,994.44
2023-01-15T03:37:06.174Z,994.48
2023-01-15T03:38:04.796Z,994.39
2023-01-15T03:39:04.929Z,994.39
2023-01-15T03:40:04.754Z,994.31
2023-01-15T03:41:04.726Z,994.35
2023-01-15T03:42:04.846Z,994.35
2023-01-15T03:43:04.763Z,994.38
2023-01-15T03:44:04.917Z,994.29
2023-01-15T03:45:04.863Z,994.36
2023-01-15T03:46:04.997Z,994.27
2023-01-15T03:47:04.945Z,994.43
2023-01-15T03:48:04.944Z,994.36
2023-01-15T03:49:04.628Z,994.42
2023-01-15T03:50:04.635Z,994.42
2023-01-15T03:51:04.923Z,994.49
2023-01-15T03:52:04.570Z,994.47
2023-01-15T03:53:04.849Z,994.48
2023-01-15T03:54:04.866Z,994.46
2023-01-15T03:55:04.806Z,994.39
2023-01-15T03:56:04.830Z,994.34
2023-01-15T03:57:04.611Z,994.39
2023-01-15T03:58:04.489Z,994.37
2023-01-15T03:59:04.479Z,994.41
2023-01-15T04:00:04.473Z,994.44
2023-01-15T04:01:04.538Z,994.42
2023-01-15T04:02:04.847Z,994.46
2023-01-15T04:03:04.453Z,994.49
2023-01-15T04:04:05.315Z,994.53
2023-01-15T04:05:04.652Z,994.40
2023-01-15T04:06:04.430Z,994.39
2023-01-15T04:07:04.397Z,994.33
2023-01-15T04:08:04.393Z,994.32
2023-01-15T04:09:08.207Z,994.27
2023-01-15T04:10:04.614Z,994.20
2023-01-15T04:11:04.347Z,994.34
2023-01-15T04:12:04.320Z,994.34
2023-01-15T04:13:04.337Z,994.46
2023-01-15T04:14:04.415Z,994.22
2023-01-15T04:15:04.550Z,994.33
2023-01-15T04:16:04.318Z,994.37
2023-01-15T04:17:04.263Z,994.41
2023-01-15T04:18:04.263Z,994.26
2023-01-15T04:19:04.232Z,994.08
2023-01-15T04:20:04.260Z,994.25
2023-01-15T04:21:05.506Z,994.24
2023-01-15T04:22:04.207Z,994.30
2023-01-15T04:23:04.204Z,994.32
2023-01-15T04:24:04.196Z,994.31
2023-01-15T04:25:04.435Z,994.22
2023-01-15T04:26:04.200Z,994.34
2023-01-15T04:27:04.136Z,994.28
2023-01-15T04:28:04.145Z,994.34
2023-01-15T04:29:04.125Z,994.39
2023-01-15T04:30:04.126Z,994.32
2023-01-15T04:31:04.107Z,994.34
2023-01-15T04:32:04.191Z,994.39
2023-01-15T04:33:04.828Z,994.36
2023-01-15T04:34:04.080Z,994.40
2023-01-15T04:35:04.039Z,994.26
2023-01-15T04:36:04.881Z,994.34
2023-01-15T04:37:04.013Z,994.27
2023-01-15T04:38:04.044Z,994.25
2023-01-15T04:39:04.016Z,994.27
2023-01-15T04:40:03.995Z,994.35
2023-01-15T04:41:03.975Z,994.31
2023-01-15T04:42:03.973Z,994.37
2023-01-15T04:43:03.936Z,994.45
2023-01-15T04:44:03.977Z,994.42
2023-01-15T04:45:03.922Z,994.39
2023-01-15T04:46:04.237Z,994.58
2023-01-15T04:47:03.941Z,994.59
2023-01-15T04:48:03.943Z,994.47
2023-01-15T04:49:04.622Z,994.55
2023-01-15T04:50:04.245Z,994.44
2023-01-15T04:51:04.117Z,994.46
2023-01-15T04:52:03.866Z,994.51
2023-01-15T04:53:03.816Z,994.52
2023-01-15T04:54:03.829Z,994.37
2023-01-15T04:55:04.078Z,994.53
2023-01-15T04:56:03.813Z,994.64
2023-01-15T04:57:04.052Z,994.55
2023-01-15T04:58:04.039Z,994.63
2023-01-15T04:59:07.747Z,994.56
2023-01-15T05:00:03.763Z,994.51
2023-01-15T05:01:03.805Z,994.56
2023-01-15T05:02:06.345Z,994.47
2023-01-15T05:03:03.727Z,994.50
2023-01-15T05:04:03.753Z,994.53
2023-01-15T05:05:03.676Z,994.60
2023-01-15T05:06:03.683Z,994.48
2023-01-15T05:07:03.657Z,994.47
2023-01-15T05:08:03.667Z,994.40
2023-01-15T05:09:03.629Z,994.49
2023-01-15T05:10:03.647Z,994.50
2023-01-15T05:11:03.608Z,994.48
2023-01-15T05:12:03.626Z,994.33
2023-01-15T05:13:03.578Z,994.43
2023-01-15T05:14:03.613Z,994.38
2023-01-15T05:15:03.848Z,994.27
2023-01-15T05:16:03.597Z,994.30
2023-01-15T05:17:03.531Z,994.34
2023-01-15T05:18:03.534Z,994.35
2023-01-15T05:19:03.532Z,994.30
2023-01-15T05:20:03.550Z,994.39
2023-01-15T05:21:03.742Z,994.33
2023-01-15T05:22:03.461Z,994.30
2023-01-15T05:23:03.463Z,994.37
2023-01-15T05:24:03.445Z,994.40
2023-01-15T05:25:03.428Z,994.34
2023-01-15T05:26:07.471Z,994.41
2023-01-15T05:27:03.667Z,994.42
2023-01-15T05:28:03.400Z,994.39
2023-01-15T05:29:03.651Z,994.57
2023-01-15T05:30:03.363Z,994.50
2023-01-15T05:31:03.387Z,994.52
2023-01-15T05:32:03.392Z,994.56
2023-01-15T05:33:04.348Z,994.58
2023-01-15T05:34:07.205Z,994.50
2023-01-15T05:35:03.309Z,994.57
2023-01-15T05:36:03.313Z,994.50
2023-01-15T05:37:03.276Z,994.52
2023-01-15T05:38:04.243Z,994.56
2023-01-15T05:39:03.253Z,994.52
2023-01-15T05:40:03.250Z,994.51
2023-01-15T05:41:03.245Z,994.54
2023-01-15T05:42:08.226Z,994.35
2023-01-15T05:43:03.196Z,994.06
2023-01-15T05:44:03.536Z,994.40
2023-01-15T05:45:15.877Z,994.69
2023-01-15T05:46:07.149Z,994.38
2023-01-15T05:47:06.984Z,994.41
2023-01-15T05:48:04.167Z,994.44
2023-01-15T05:49:03.122Z,994.44
2023-01-15T05:50:03.216Z,994.56
2023-01-15T05:51:07.109Z,994.54
2023-01-15T05:52:03.141Z,994.44
2023-01-15T05:53:03.075Z,994.59
2023-01-15T05:54:03.359Z,994.66
2023-01-15T05:55:04.016Z,994.44
2023-01-15T05:56:03.131Z,994.49
2023-01-15T05:57:03.359Z,994.56
2023-01-15T05:58:03.020Z,994.45
2023-01-15T05:59:14.533Z,994.63
2023-01-15T06:00:03.278Z,994.57
2023-01-15T06:01:03.042Z,994.62
2023-01-15T06:02:03.104Z,994.58
2023-01-15T06:03:02.996Z,994.48
2023-01-15T06:04:03.052Z,994.64
2023-01-15T06:05:03.222Z,994.46
2023-01-15T06:06:06.942Z,994.43
2023-01-15T06:07:02.925Z,994.51
2023-01-15T06:08:02.915Z,994.40
2023-01-15T06:09:02.864Z,994.48
2023-01-15T06:10:02.875Z,994.44
2023-01-15T06:11:02.862Z,994.52
2023-01-15T06:12:02.844Z,994.47
2023-01-15T06:13:02.835Z,994.48
2023-01-15T06:14:02.856Z,994.36
2023-01-15T06:15:02.808Z,994.39
2023-01-15T06:16:02.827Z,994.47
2023-01-15T06:17:02.797Z,994.51
2023-01-15T06:18:02.788Z,994.53
2023-01-15T06:19:02.756Z,994.44
2023-01-15T06:20:03.033Z,994.49
2023-01-15T06:21:02.744Z,994.49
2023-01-15T06:22:02.726Z,994.58
2023-01-15T06:23:02.709Z,994.52
2023-01-15T06:24:02.728Z,994.52
2023-01-15T06:25:02.709Z,994.55
2023-01-15T06:26:03.038Z,994.43
2023-01-15T06:27:02.664Z,994.45
2023-01-15T06:28:02.678Z,994.28
2023-01-15T06:29:02.672Z,994.37
2023-01-15T06:30:02.643Z,994.41
2023-01-15T06:31:02.692Z,994.40
2023-01-15T06:32:02.620Z,994.41
2023-01-15T06:33:02.615Z,994.49
2023-01-15T06:34:04.376Z,994.45
2023-01-15T06:35:02.578Z,994.51
2023-01-15T06:36:02.560Z,994.31
2023-01-15T06:37:02.550Z,994.44
2023-01-15T06:38:02.843Z,994.54
2023-01-15T06:39:05.096Z,994.36
2023-01-15T06:40:02.511Z,994.18
2023-01-15T06:41:02.493Z,994.12
2023-01-15T06:42:02.506Z,994.16
2023-01-15T06:43:02.482Z,994.22
2023-01-15T06:44:02.809Z,994.22
2023-01-15T06:45:02.458Z,994.23
2023-01-15T06:46:02.426Z,994.16
2023-01-15T06:47:02.414Z,994.28
2023-01-15T06:48:02.693Z,994.15
2023-01-15T06:49:02.408Z,994.28
2023-01-15T06:50:02.418Z,994.27
2023-01-15T06:51:02.635Z,994.51
2023-01-15T06:52:02.355Z,994.49
2023-01-15T06:53:02.362Z,994.45
2023-01-15T06:54:02.343Z,994.32
2023-01-15T06:55:02.316Z,994.46
2023-01-15T06:56:02.405Z,994.52
2023-01-15T06:57:02.585Z,994.48
2023-01-15T06:58:02.282Z,994.51
2023-01-15T06:59:02.279Z,994.45
2023-01-15T07:00:02.264Z,994.58
2023-01-15T07:01:02.291Z,994.56
2023-01-15T07:02:02.523Z,994.70
2023-01-15T07:03:02.234Z,994.50
2023-01-15T07:04:02.271Z,994.48
2023-01-15T07:05:02.468Z,994.56
2023-01-15T07:06:02.189Z,994.58
2023-01-15T07:07:02.198Z,994.44
2023-01-15T07:08:02.468Z,994.64
2023-01-15T07:09:02.154Z,994.50
2023-01-15T07:10:02.157Z,994.57
2023-01-15T07:11:02.394Z,994.45
2023-01-15T07:12:02.123Z,994.54
2023-01-15T07:13:02.385Z,994.45
2023-01-15T07:14:02.123Z,994.57
2023-01-15T07:15:02.097Z,994.62
2023-01-15T07:16:02.089Z,994.53
2023-01-15T07:17:02.061Z,994.49
2023-01-15T07:18:02.041Z,994.48
2023-01-15T07:19:02.044Z,994.53
2023-01-15T07:20:02.035Z,994.57
2023-01-15T07:21:02.012Z,994.32
2023-01-15T07:22:02.002Z,994.57
2023-01-15T07:23:01.972Z,994.58
2023-01-15T07:24:02.001Z,994.46
2023-01-15T07:25:02.223Z,994.48
2023-01-15T07:26:02.043Z,994.16
2023-01-15T07:27:01.935Z,994.45
2023-01-15T07:28:01.913Z,994.60
2023-01-15T07:29:01.911Z,994.46
2023-01-15T07:30:03.111Z,994.42
2023-01-15T07:31:01.930Z,994.37
2023-01-15T07:32:01.901Z,994.50
2023-01-15T07:33:01.863Z,994.46
2023-01-15T07:34:01.835Z,994.51
2023-01-15T07:35:01.840Z,994.54
2023-01-15T07:36:01.824Z,994.64
2023-01-15T07:37:03.564Z,994.54
2023-01-15T07:38:01.892Z,994.41
2023-01-15T07:39:01.777Z,994.55
2023-01-15T07:40:01.794Z,994.42
2023-01-15T07:41:01.779Z,994.53
2023-01-15T07:42:01.768Z,994.49
2023-01-15T07:43:01.735Z,994.51
2023-01-15T07:44:01.766Z,994.46
2023-01-15T07:45:01.721Z,994.52
2023-01-15T07:46:01.760Z,994.50
2023-01-15T07:47:01.685Z,994.45
2023-01-15T07:48:01.677Z,994.54
2023-01-15T07:49:01.673Z,994.57
2023-01-15T07:50:01.779Z,994.59
2023-01-15T07:51:01.649Z,994.56
2023-01-15T07:52:01.632Z,994.58
2023-01-15T07:53:01.930Z,994.46
2023-01-15T07:54:01.611Z,994.59
2023-01-15T07:55:01.587Z,994.56
2023-01-15T07:56:01.598Z,994.62
2023-01-15T07:57:01.840Z,994.63
2023-01-15T07:58:01.552Z,994.61
2023-01-15T07:59:01.553Z,994.59
2023-01-15T08:00:01.530Z,994.61
2023-01-15T08:01:01.646Z,994.63
2023-01-15T08:02:01.703Z,994.46
2023-01-15T08:03:01.537Z,994.41
2023-01-15T08:04:01.794Z,994.53
2023-01-15T08:05:01.476Z,994.72
2023-01-15T08:06:01.452Z,994.52
2023-01-15T08:07:01.489Z,994.52
2023-01-15T08:08:01.464Z,994.56
2023-01-15T08:09:01.445Z,994.57
2023-01-15T08:10:01.684Z,994.47
2023-01-15T08:11:01.405Z,994.59
2023-01-15T08:12:01.378Z,994.67
2023-01-15T08:13:01.379Z,994.52
2023-01-15T08:14:01.463Z,994.48
2023-01-15T08:15:01.349Z,994.55
2023-01-15T08:16:01.352Z,994.55
2023-01-15T08:17:01.315Z,994.55
2023-01-15T08:18:01.317Z,994.45
2023-01-15T08:19:01.297Z,994.54
2023-01-15T08:20:01.312Z,994.61
2023-01-15T08:21:01.280Z,994.48
2023-01-15T08:22:01.250Z,994.37
2023-01-15T08:23:01.247Z,994.58
2023-01-15T08:24:01.227Z,994.63
2023-01-15T08:25:01.239Z,994.67
2023-01-15T08:26:01.258Z,994.63
2023-01-15T08:27:01.209Z,994.61
2023-01-15T08:28:01.182Z,994.61
2023-01-15T08:29:01.189Z,994.51
2023-01-15T08:30:01.167Z,994.65
2023-01-15T08:31:01.458Z,994.54
2023-01-15T08:32:03.268Z,994.61
2023-01-15T08:33:01.149Z,994.51
2023-01-15T08:34:01.100Z,994.67
2023-01-15T08:35:01.127Z,994.62
2023-01-15T08:36:01.089Z,994.57
2023-01-15T08:37:01.356Z,994.57
2023-01-15T08:38:01.170Z,994.57
2023-01-15T08:39:01.069Z,994.49
2023-01-15T08:40:01.060Z,994.51
2023-01-15T08:41:01.025Z,994.57
2023-01-15T08:42:01.028Z,994.57
2023-01-15T08:43:01.012Z,994.66
2023-01-15T08:44:01.148Z,994.58
2023-01-15T08:45:00.980Z,994.55
2023-01-15T08:46:01.011Z,994.55
2023-01-15T08:47:00.975Z,994.58
2023-01-15T08:48:00.947Z,994.46
2023-01-15T08:49:00.954Z,994.52
2023-01-15T08:50:00.942Z,994.68
2023-01-15T08:51:00.919Z,994.57
2023-01-15T08:52:00.906Z,994.59
2023-01-15T08:53:00.895Z,994.33
2023-01-15T08:54:00.857Z,994.51
2023-01-15T08:55:00.911Z,994.69
2023-01-15T08:56:00.901Z,994.45
2023-01-15T08:57:00.842Z,994.60
2023-01-15T08:58:00.821Z,994.69
2023-01-15T08:59:00.832Z,994.77
2023-01-15T09:00:00.798Z,994.54
2023-01-15T09:01:00.948Z,994.51
2023-01-15T09:02:00.996Z,994.59
2023-01-15T09:03:00.772Z,994.66
2023-01-15T09:04:00.749Z,994.61
2023-01-15T09:05:00.793Z,994.58
2023-01-15T09:06:00.741Z,994.65
2023-01-15T09:07:00.767Z,994.68
2023-01-15T09:08:00.735Z,994.53
2023-01-15T09:09:01.443Z,994.72
2023-01-15T09:10:00.680Z,994.61
2023-01-15T09:11:00.671Z,994.77
2023-01-15T09:12:00.649Z,994.81
2023-01-15T09:13:00.642Z,994.78
2023-01-15T09:14:00.929Z,994.71
2023-01-15T09:15:03.367Z,994.68
2023-01-15T09:16:00.609Z,994.80
2023-01-15T09:17:00.596Z,994.82
2023-01-15T09:18:00.597Z,994.74
2023-01-15T09:19:00.895Z,994.72
2023-01-15T09:20:00.607Z,994.70
2023-01-15T09:21:00.544Z,994.76
2023-01-15T09:22:00.526Z,994.52
2023-01-15T09:23:00.501Z,994.50
2023-01-15T09:24:00.482Z,994.42
2023-01-15T09:25:00.479Z,994.63
2023-01-15T09:26:00.508Z,994.62
2023-01-15T09:27:00.478Z,994.51
2023-01-15T09:28:00.452Z,994.69
2023-01-15T09:29:00.439Z,994.52
2023-01-15T09:30:00.425Z,994.53
2023-01-15T09:31:00.470Z,994.61
2023-01-15T09:32:00.419Z,994.59
2023-01-15T09:33:00.383Z,994.61
2023-01-15T09:34:00.641Z,994.74
2023-01-15T09:35:00.408Z,994.72
2023-01-15T09:36:00.368Z,994.59
2023-01-15T09:37:00.362Z,994.70
2023-01-15T09:38:00.349Z,994.73
2023-01-15T09:39:00.305Z,994.70
2023-01-15T09:40:00.283Z,994.61
2023-01-15T09:41:00.284Z,994.72
2023-01-15T09:42:00.261Z,994.89
2023-01-15T09:43:00.278Z,994.72
2023-01-15T09:44:00.271Z,994.58
2023-01-15T09:45:00.256Z,994.63
2023-01-15T09:46:00.288Z,994.71
2023-01-15T09:47:00.210Z,994.77
2023-01-15T09:48:00.182Z,994.71
2023-01-15T09:49:00.202Z,994.65
2023-01-15T09:50:00.195Z,994.63
2023-01-15T09:51:00.184Z,994.66
2023-01-15T09:52:00.164Z,994.56
2023-01-15T09:53:00.138Z,994.55
2023-01-15T09:54:00.104Z,994.50
2023-01-15T09:55:00.116Z,994.50
2023-01-15T09:56:00.220Z,994.35
2023-01-15T09:57:00.100Z,994.50
2023-01-15T09:58:00.063Z,994.50
2023-01-15T09:59:00.078Z,994.61
2023-01-15T10:00:00.045Z,994.61
2023-01-15T10:01:00.080Z,994.59
2023-01-15T10:02:00.096Z,994.90
2023-01-15T10:03:00.072Z,994.68
2023-01-15T10:04:00.078Z,994.54
2023-01-15T10:04:59.975Z,994.60
2023-01-15T10:05:59.954Z,994.64
2023-01-15T10:06:59.947Z,994.61
2023-01-15T10:08:00.051Z,994.64
2023-01-15T10:08:59.931Z,994.47
2023-01-15T10:09:59.900Z,994.69
2023-01-15T10:10:59.900Z,994.64
2023-01-15T10:11:59.886Z,994.50
2023-01-15T10:12:59.879Z,994.54
2023-01-15T10:13:59.880Z,994.74
2023-01-15T10:14:59.857Z,994.51
2023-01-15T10:15:59.879Z,994.50
2023-01-15T10:16:59.854Z,994.60
2023-01-15T10:17:59.818Z,994.35
2023-01-15T10:19:00.108Z,994.62
2023-01-15T10:19:59.809Z,994.37
2023-01-15T10:21:00.066Z,994.63
2023-01-15T10:21:59.751Z,994.59
2023-01-15T10:22:59.990Z,994.67
2023-01-15T10:23:59.733Z,994.68
2023-01-15T10:24:59.710Z,994.61
2023-01-15T10:25:59.740Z,994.69
2023-01-15T10:26:59.686Z,994.67
2023-01-15T10:27:59.684Z,994.73
2023-01-15T10:28:59.664Z,994.74
2023-01-15T10:29:59.924Z,994.68
2023-01-15T10:30:59.698Z,994.52
2023-01-15T10:31:59.661Z,994.60
2023-01-15T10:33:03.440Z,994.58
2023-01-15T10:33:59.614Z,994.59
2023-01-15T10:34:59.597Z,994.70
2023-01-15T10:35:59.590Z,994.70
2023-01-15T10:36:59.565Z,994.71
2023-01-15T10:37:59.572Z,994.63
2023-01-15T10:38:59.858Z,994.58
2023-01-15T10:39:59.529Z,994.74
2023-01-15T10:40:59.519Z,994.73
2023-01-15T10:41:59.507Z,994.50
2023-01-15T10:42:59.490Z,994.63
2023-01-15T10:43:59.531Z,994.88
2023-01-15T10:44:59.470Z,994.96
2023-01-15T10:45:59.501Z,994.86
2023-01-15T10:46:59.463Z,994.84
2023-01-15T10:47:59.436Z,994.57
2023-01-15T10:48:59.419Z,994.90
2023-01-15T10:49:59.441Z,994.79
2023-01-15T10:50:59.394Z,994.88
2023-01-15T10:51:59.383Z,994.86
2023-01-15T10:52:59.355Z,994.83
2023-01-15T10:53:59.355Z,994.78
2023-01-15T10:54:59.343Z,994.90
2023-01-15T10:55:59.365Z,994.98
2023-01-15T10:56:59.315Z,994.98
2023-01-15T10:58:09.988Z,994.73
2023-01-15T10:59:00.295Z,994.82
2023-01-15T10:59:59.279Z,994.86
2023-01-15T11:00:59.286Z,994.83
2023-01-15T11:01:59.489Z,994.91
2023-01-15T11:02:59.274Z,994.66
2023-01-15T11:03:59.218Z,994.65
2023-01-15T11:04:59.208Z,994.72
2023-01-15T11:05:59.198Z,994.67
2023-01-15T11:06:59.194Z,994.60
2023-01-15T11:08:39.426Z,994.51
2023-01-15T11:09:10.237Z,994.68
2023-01-15T11:10:01.122Z,994.41
2023-01-15T11:10:59.130Z,994.88
2023-01-15T11:11:59.423Z,994.61
2023-01-15T11:12:59.372Z,994.64
2023-01-15T11:13:59.136Z,994.67
2023-01-15T11:14:59.099Z,994.61
2023-01-15T11:15:59.089Z,994.51
2023-01-15T11:16:59.058Z,994.47
2023-01-15T11:17:59.044Z,994.80
2023-01-15T11:18:59.043Z,994.87
2023-01-15T11:19:59.314Z,994.74
2023-01-15T11:20:59.025Z,994.60
2023-01-15T11:21:59.017Z,994.82
2023-01-15T11:22:58.970Z,994.85
2023-01-15T11:23:58.954Z,994.77
2023-01-15T11:24:58.939Z,995.02
2023-01-15T11:25:59.087Z,994.78
2023-01-15T11:26:58.938Z,994.63
2023-01-15T11:27:58.915Z,994.61
2023-01-15T11:28:58.899Z,994.55
2023-01-15T11:29:58.886Z,994.60
2023-01-15T11:31:02.917Z,994.75
2023-01-15T11:31:58.978Z,994.64
2023-01-15T11:32:59.135Z,994.57
2023-01-15T11:33:58.864Z,994.63
2023-01-15T11:34:58.831Z,994.56
2023-01-15T11:35:58.887Z,994.28
2023-01-15T11:36:58.782Z,994.39
2023-01-15T11:37:58.897Z,994.53
2023-01-15T11:38:58.766Z,994.54
2023-01-15T11:40:02.801Z,994.51
2023-01-15T11:40:58.787Z,994.39
2023-01-15T11:41:58.750Z,994.54
2023-01-15T11:42:58.724Z,994.73
2023-01-15T11:43:59.192Z,994.46
2023-01-15T11:44:58.691Z,994.63
2023-01-15T11:45:58.747Z,994.62
2023-01-15T11:46:58.682Z,994.44
2023-01-15T11:47:58.663Z,994.47
2023-01-15T11:48:58.644Z,994.28
2023-01-15T11:49:58.664Z,994.46
2023-01-15T11:50:58.625Z,994.53
2023-01-15T11:51:58.607Z,994.56
2023-01-15T11:53:02.566Z,994.61
2023-01-15T11:53:58.580Z,994.36
2023-01-15T11:54:59.245Z,994.51
2023-01-15T11:55:58.608Z,994.54
2023-01-15T11:56:58.546Z,994.52
2023-01-15T11:57:58.537Z,994.73
2023-01-15T11:58:58.596Z,994.45
2023-01-15T11:59:58.847Z,994.50
2023-01-15T12:00:58.564Z,994.60
2023-01-15T12:01:58.607Z,994.42
2023-01-15T12:02:58.476Z,994.61
2023-01-15T12:04:02.597Z,994.63
2023-01-15T12:04:58.464Z,994.41
2023-01-15T12:05:58.456Z,994.49
2023-01-15T12:07:02.506Z,994.37
2023-01-15T12:07:58.542Z,994.31
2023-01-15T12:08:58.398Z,994.37
2023-01-15T12:09:58.662Z,994.42
2023-01-15T12:10:58.392Z,994.44
2023-01-15T12:11:58.370Z,994.32
2023-01-15T12:12:59.134Z,994.40
2023-01-15T12:13:58.372Z,994.11
2023-01-15T12:14:58.329Z,994.45
2023-01-15T12:16:00.108Z,994.36
2023-01-15T12:16:58.294Z,994.32
2023-01-15T12:17:58.324Z,994.30
2023-01-15T12:18:58.280Z,994.26
2023-01-15T12:19:58.566Z,994.40
2023-01-15T12:20:58.511Z,994.38
2023-01-15T12:21:58.238Z,994.29
2023-01-15T12:22:58.225Z,994.29
2023-01-15T12:23:58.208Z,994.20
2023-01-15T12:24:58.202Z,994.19
2023-01-15T12:25:58.233Z,994.26
2023-01-15T12:26:58.190Z,994.33
2023-01-15T12:27:58.464Z,994.28
2023-01-15T12:28:58.146Z,994.08
2023-01-15T12:29:58.134Z,994.31